createdAt,value
2022-09-13T00:01:03.111Z,6.83
2022-09-13T00:03:40.653Z,6.83
2022-09-13T00:06:19.382Z,6.83
2022-09-13T00:08:48.046Z,6.83
2022-09-13T00:11:18.796Z,6.81
2022-09-13T00:13:46.820Z,6.80
2022-09-13T00:16:16.310Z,6.80
2022-09-13T00:18:43.860Z,6.82
2022-09-13T00:21:14.177Z,6.84
2022-09-13T00:23:47.352Z,6.82
2022-09-13T00:26:18.517Z,6.79
2022-09-13T00:28:50.595Z,6.78
2022-09-13T00:31:18.619Z,6.81
2022-09-13T00:33:45.929Z,6.82
2022-09-13T00:36:15.483Z,6.81
2022-09-13T00:38:43.687Z,6.78
2022-09-13T00:41:14.765Z,6.73
2022-09-13T00:43:57.413Z,6.73
2022-09-13T00:46:44.795Z,6.75
2022-09-13T00:49:12.350Z,6.72
2022-09-13T00:51:41.735Z,6.62
2022-09-13T00:54:09.550Z,6.73
2022-09-13T00:56:41.535Z,6.69
2022-09-13T00:59:13.802Z,6.70
2022-09-13T01:01:46.116Z,6.70
2022-09-13T01:04:13.728Z,6.70
2022-09-13T01:06:41.748Z,6.70
2022-09-13T01:09:11.383Z,6.65
2022-09-13T01:11:50.307Z,6.67
2022-09-13T01:14:19.195Z,6.63
2022-09-13T01:16:48.004Z,6.64
2022-09-13T01:19:15.914Z,6.61
2022-09-13T01:22:20.969Z,6.59
2022-09-13T01:25:14.433Z,6.58
2022-09-13T01:28:19.163Z,6.54
2022-09-13T01:30:59.998Z,6.43
2022-09-13T01:33:52.779Z,6.54
2022-09-13T01:36:24.209Z,6.49
2022-09-13T01:39:06.160Z,6.48
2022-09-13T01:41:36.580Z,6.49
2022-09-13T01:44:22.548Z,6.47
2022-09-13T01:46:58.896Z,6.46
2022-09-13T01:49:34.348Z,6.43
2022-09-13T01:52:08.763Z,6.46
2022-09-13T01:55:13.069Z,6.47
2022-09-13T01:57:59.494Z,6.51
2022-09-13T02:00:27.977Z,6.50
2022-09-13T02:03:07.250Z,6.51
2022-09-13T02:05:42.755Z,6.53
2022-09-13T02:08:19.736Z,6.51
2022-09-13T02:11:11.582Z,6.55
2022-09-13T02:13:43.419Z,6.50
2022-09-13T02:16:20.403Z,6.45
2022-09-13T02:18:51.945Z,6.39
2022-09-13T02:21:27.235Z,6.44
2022-09-13T02:23:59.818Z,6.45
2022-09-13T02:26:28.980Z,6.48
2022-09-13T02:28:58.806Z,6.42
2022-09-13T02:31:33.416Z,6.39
2022-09-13T02:34:05.059Z,6.36
2022-09-13T02:36:36.398Z,6.39
2022-09-13T02:39:07.175Z,6.38
2022-09-13T02:41:46.387Z,6.41
2022-09-13T02:44:32.071Z,6.42
2022-09-13T02:47:30.144Z,6.43
2022-09-13T02:50:21.965Z,6.42
2022-09-13T02:52:59.155Z,6.41
2022-09-13T02:55:51.074Z,6.38
2022-09-13T02:58:31.087Z,6.42
2022-09-13T03:00:58.796Z,6.41
2022-09-13T03:03:26.115Z,6.39
2022-09-13T03:05:54.096Z,6.37
2022-09-13T03:08:22.434Z,6.29
2022-09-13T03:11:14.679Z,6.31
2022-09-13T03:14:13.235Z,6.30
2022-09-13T03:17:18.153Z,6.20
2022-09-13T03:20:19.305Z,6.22
2022-09-13T03:23:10.758Z,6.24
2022-09-13T03:26:15.768Z,6.24
2022-09-13T03:28:51.868Z,6.17
2022-09-13T03:31:28.908Z,6.19
2022-09-13T03:33:59.069Z,6.22
2022-09-13T03:36:43.062Z,6.17
2022-09-13T03:39:15.383Z,6.23
2022-09-13T03:41:47.135Z,6.22
2022-09-13T03:44:17.249Z,6.19
2022-09-13T03:46:48.108Z,6.15
2022-09-13T03:49:17.435Z,6.16
2022-09-13T03:51:47.756Z,6.12
2022-09-13T03:54:20.310Z,6.06
2022-09-13T03:57:21.488Z,6.11
2022-09-13T03:59:51.654Z,6.07
2022-09-13T04:02:19.590Z,6.05
2022-09-13T04:04:47.285Z,6.08
2022-09-13T04:07:17.262Z,6.03
2022-09-13T04:09:46.052Z,5.99
2022-09-13T04:12:15.239Z,6.03
2022-09-13T04:14:46.415Z,6.02
2022-09-13T04:17:14.302Z,6.04
2022-09-13T04:19:42.244Z,6.07
2022-09-13T04:22:09.825Z,6.07
2022-09-13T04:24:39.014Z,6.12
2022-09-13T04:27:07.988Z,6.18
2022-09-13T04:29:35.760Z,6.23
2022-09-13T04:32:50.872Z,6.26
2022-09-13T04:35:20.023Z,6.31
2022-09-13T04:37:47.478Z,6.35
2022-09-13T04:40:15.436Z,6.39
2022-09-13T04:42:46.189Z,6.39
2022-09-13T04:45:14.320Z,6.44
2022-09-13T04:47:41.653Z,6.52
2022-09-13T04:50:10.032Z,6.48
2022-09-13T04:52:37.263Z,6.62
2022-09-13T04:55:05.029Z,6.68
2022-09-13T04:57:33.056Z,6.74
2022-09-13T05:00:00.342Z,6.85
2022-09-13T05:02:27.687Z,6.91
2022-09-13T05:04:56.366Z,7.00
2022-09-13T05:07:23.618Z,7.06
2022-09-13T05:09:50.835Z,7.14
2022-09-13T05:12:18.527Z,7.17
2022-09-13T05:14:45.956Z,7.19
2022-09-13T05:17:13.632Z,7.24
2022-09-13T05:19:41.524Z,7.29
2022-09-13T05:22:09.084Z,7.34
2022-09-13T05:24:36.242Z,7.29
2022-09-13T05:27:03.913Z,7.30
2022-09-13T05:29:31.184Z,7.49
2022-09-13T05:31:58.912Z,7.51
2022-09-13T05:34:26.484Z,7.64
2022-09-13T05:36:54.561Z,7.58
2022-09-13T05:39:39.837Z,7.66
2022-09-13T05:42:10.331Z,7.74
2022-09-13T05:44:37.422Z,7.91
2022-09-13T05:47:05.682Z,7.99
2022-09-13T05:49:33.117Z,8.01
2022-09-13T05:52:00.439Z,8.00
2022-09-13T05:54:27.918Z,7.98
2022-09-13T05:56:57.745Z,8.08
2022-09-13T05:59:25.195Z,8.03
2022-09-13T06:01:52.493Z,8.12
2022-09-13T06:04:20.390Z,8.07
2022-09-13T06:06:47.842Z,8.20
2022-09-13T06:09:15.312Z,8.26
2022-09-13T06:11:42.972Z,8.33
2022-09-13T06:14:10.400Z,8.43
2022-09-13T06:16:37.730Z,8.47
2022-09-13T06:19:05.639Z,8.56
2022-09-13T06:21:33.167Z,8.45
2022-09-13T06:24:00.681Z,8.71
2022-09-13T06:26:28.518Z,8.89
2022-09-13T06:28:57.943Z,9.09
2022-09-13T06:31:28.058Z,9.31
2022-09-13T06:34:02.542Z,9.25
2022-09-13T06:36:30.029Z,9.28
2022-09-13T06:39:00.585Z,9.34
2022-09-13T06:41:28.508Z,9.50
2022-09-13T06:43:58.616Z,9.81
2022-09-13T06:46:29.023Z,9.98
2022-09-13T06:48:59.810Z,10.40
2022-09-13T06:51:29.799Z,11.05
2022-09-13T06:53:57.680Z,11.52
2022-09-13T06:56:27.083Z,11.98
2022-09-13T06:58:58.140Z,12.31
2022-09-13T07:01:28.351Z,12.59
2022-09-13T07:04:06.027Z,12.83
2022-09-13T07:06:36.454Z,13.13
2022-09-13T07:09:05.893Z,13.67
2022-09-13T07:11:36.646Z,14.04
2022-09-13T07:14:04.565Z,14.37
2022-09-13T07:16:35.492Z,14.75
2022-09-13T07:19:07.942Z,14.90
2022-09-13T07:21:35.841Z,15.10
2022-09-13T07:24:04.606Z,15.34
2022-09-13T07:26:32.018Z,15.67
2022-09-13T07:29:01.901Z,15.93
2022-09-13T07:31:35.213Z,15.90
2022-09-13T07:34:05.722Z,16.10
2022-09-13T07:36:35.488Z,16.20
2022-09-13T07:39:04.322Z,16.21
2022-09-13T07:41:32.851Z,16.70
2022-09-13T07:44:01.980Z,16.71
2022-09-13T07:46:33.849Z,16.66
2022-09-13T07:49:02.297Z,17.00
2022-09-13T07:51:32.101Z,17.27
2022-09-13T07:54:02.457Z,17.39
2022-09-13T07:56:38.373Z,17.41
2022-09-13T07:59:07.310Z,17.12
2022-09-13T08:01:40.755Z,17.13
2022-09-13T08:04:09.260Z,17.48
2022-09-13T08:06:37.982Z,17.53
2022-09-13T08:09:07.178Z,17.63
2022-09-13T08:11:39.797Z,17.48
2022-09-13T08:14:09.342Z,17.89
2022-09-13T08:16:37.392Z,17.82
2022-09-13T08:19:05.173Z,17.44
2022-09-13T08:21:38.051Z,17.53
2022-09-13T08:24:08.894Z,17.84
2022-09-13T08:26:36.964Z,18.04
2022-09-13T08:29:06.682Z,18.22
2022-09-13T08:31:34.949Z,18.30
2022-09-13T08:34:02.638Z,18.31
2022-09-13T08:36:30.016Z,18.41
2022-09-13T08:39:00.396Z,18.39
2022-09-13T08:41:35.553Z,18.49
2022-09-13T08:44:34.774Z,18.65
2022-09-13T08:47:27.007Z,18.72
2022-09-13T08:50:13.135Z,18.85
2022-09-13T08:53:02.233Z,18.70
2022-09-13T08:55:41.153Z,18.53
2022-09-13T08:58:27.537Z,18.64
2022-09-13T09:01:04.179Z,18.64
2022-09-13T09:03:43.250Z,18.54
2022-09-13T09:06:14.465Z,18.53
2022-09-13T09:08:48.023Z,18.58
2022-09-13T09:11:52.957Z,18.52
2022-09-13T09:14:25.640Z,18.42
2022-09-13T09:17:07.763Z,18.27
2022-09-13T09:19:38.674Z,18.05
2022-09-13T09:22:12.473Z,18.05
2022-09-13T09:24:41.012Z,18.06
2022-09-13T09:27:15.894Z,17.98
2022-09-13T09:29:47.284Z,18.00
2022-09-13T09:32:42.552Z,18.07
2022-09-13T09:35:28.318Z,18.17
2022-09-13T09:38:27.890Z,18.21
2022-09-13T09:40:55.491Z,18.36
2022-09-13T09:43:27.802Z,18.40
2022-09-13T09:45:56.375Z,18.35
2022-09-13T09:48:29.985Z,18.43
2022-09-13T09:50:58.844Z,18.73
2022-09-13T09:53:37.067Z,18.86
2022-09-13T09:56:26.496Z,18.86
2022-09-13T09:58:55.911Z,18.84
2022-09-13T10:01:32.778Z,18.73
2022-09-13T10:04:19.637Z,18.83
2022-09-13T10:06:47.665Z,18.91
2022-09-13T10:09:20.557Z,18.78
2022-09-13T10:11:58.633Z,18.84
2022-09-13T10:14:41.878Z,18.69
2022-09-13T10:17:18.774Z,18.59
2022-09-13T10:20:02.257Z,18.62
2022-09-13T10:22:30.384Z,18.62
2022-09-13T10:25:25.372Z,18.71
2022-09-13T10:27:55.209Z,18.80
2022-09-13T10:30:32.028Z,18.83
2022-09-13T10:32:59.707Z,18.91
2022-09-13T10:35:27.959Z,18.95
2022-09-13T10:37:55.656Z,18.82
2022-09-13T10:40:30.058Z,18.68
2022-09-13T10:42:59.079Z,18.71
2022-09-13T10:45:28.559Z,18.78
2022-09-13T10:48:01.281Z,18.84
2022-09-13T10:50:36.000Z,18.61
2022-09-13T10:53:05.325Z,18.60
2022-09-13T10:55:41.185Z,18.67
2022-09-13T10:58:08.497Z,18.82
2022-09-13T11:00:42.450Z,18.84
2022-09-13T11:03:15.333Z,18.84
2022-09-13T11:06:21.647Z,19.06
2022-09-13T11:09:17.170Z,19.23
2022-09-13T11:12:25.035Z,19.30
2022-09-13T11:15:16.000Z,19.23
2022-09-13T11:18:06.135Z,19.06
2022-09-13T11:20:43.687Z,19.10
2022-09-13T11:23:24.561Z,18.97
2022-09-13T11:25:58.019Z,19.01
2022-09-13T11:28:48.767Z,18.93
2022-09-13T11:31:40.768Z,18.81
2022-09-13T11:34:21.387Z,18.89
2022-09-13T11:37:15.213Z,19.02
2022-09-13T11:40:04.831Z,18.94
2022-09-13T11:42:38.259Z,19.02
2022-09-13T11:45:23.002Z,19.00
2022-09-13T11:48:29.936Z,19.06
2022-09-13T11:51:19.757Z,19.14
2022-09-13T11:54:06.974Z,19.26
2022-09-13T11:56:42.222Z,19.32
2022-09-13T11:59:24.864Z,19.33
2022-09-13T12:01:55.946Z,19.35
2022-09-13T12:04:34.093Z,19.28
2022-09-13T12:07:06.130Z,19.29
2022-09-13T12:09:40.553Z,19.27
2022-09-13T12:12:13.220Z,19.27
2022-09-13T12:15:18.373Z,19.18
2022-09-13T12:17:50.346Z,19.02
2022-09-13T12:20:34.891Z,18.84
2022-09-13T12:23:08.964Z,18.69
2022-09-13T12:26:04.356Z,18.56
2022-09-13T12:28:43.489Z,18.60
2022-09-13T12:31:16.515Z,18.32
2022-09-13T12:33:46.095Z,18.50
2022-09-13T12:36:19.527Z,18.55
2022-09-13T12:39:01.121Z,18.45
2022-09-13T12:41:50.351Z,18.32
2022-09-13T12:44:40.045Z,18.30
2022-09-13T12:47:07.320Z,18.28
2022-09-13T12:49:41.328Z,18.25
2022-09-13T12:52:48.812Z,18.30
2022-09-13T12:55:47.742Z,18.14
2022-09-13T12:58:34.449Z,18.14
2022-09-13T13:01:25.842Z,18.15
2022-09-13T13:04:13.212Z,18.13
2022-09-13T13:06:54.399Z,18.14
2022-09-13T13:09:28.705Z,18.18
2022-09-13T13:11:58.585Z,18.10
2022-09-13T13:14:41.121Z,18.16
2022-09-13T13:17:46.261Z,17.98
2022-09-13T13:20:38.613Z,17.97
2022-09-13T13:23:35.460Z,17.85
2022-09-13T13:26:59.988Z,17.82
2022-09-13T13:29:31.672Z,17.81
2022-09-13T13:32:07.871Z,17.79
2022-09-13T13:34:44.764Z,17.68
2022-09-13T13:37:12.102Z,17.70
2022-09-13T13:39:44.258Z,17.62
2022-09-13T13:42:31.840Z,17.66
2022-09-13T13:45:07.250Z,17.71
2022-09-13T13:47:34.614Z,17.60
2022-09-13T13:50:20.563Z,17.67
2022-09-13T13:52:48.340Z,17.75
2022-09-13T13:55:49.293Z,17.73
2022-09-13T13:58:19.707Z,17.69
2022-09-13T14:00:51.103Z,17.72
2022-09-13T14:03:37.011Z,17.73
2022-09-13T14:06:16.628Z,17.62
2022-09-13T14:11:37.696Z,17.81
2022-09-13T14:14:42.460Z,17.83
2022-09-13T14:17:48.645Z,17.79
2022-09-13T14:20:23.543Z,17.78
2022-09-13T14:22:51.136Z,17.81
2022-09-13T14:25:24.082Z,17.85
2022-09-13T14:27:54.101Z,17.81
2022-09-13T14:30:24.259Z,17.80
2022-09-13T14:32:54.376Z,17.83
2022-09-13T14:35:41.336Z,17.89
2022-09-13T14:38:33.605Z,17.97
2022-09-13T14:41:17.636Z,18.05
2022-09-13T14:43:46.202Z,17.96
2022-09-13T14:46:19.891Z,17.94
2022-09-13T14:48:56.810Z,17.81
2022-09-13T14:51:33.400Z,17.88
2022-09-13T14:54:09.342Z,17.93
2022-09-13T14:56:48.667Z,17.85
2022-09-13T14:59:43.281Z,17.87
2022-09-13T15:02:36.816Z,17.80
2022-09-13T15:05:12.640Z,17.82
2022-09-13T15:07:41.522Z,17.87
2022-09-13T15:10:09.751Z,17.88
2022-09-13T15:12:38.122Z,17.83
2022-09-13T15:15:33.679Z,17.88
2022-09-13T15:18:17.981Z,17.85
2022-09-13T15:20:51.730Z,17.81
2022-09-13T15:23:36.334Z,17.79
2022-09-13T15:26:12.160Z,17.74
2022-09-13T15:28:51.077Z,17.58
2022-09-13T15:31:26.708Z,17.65
2022-09-13T15:34:16.619Z,17.58
2022-09-13T15:36:49.129Z,17.61
2022-09-13T15:39:21.463Z,17.66
2022-09-13T15:41:53.355Z,17.66
2022-09-13T15:44:21.312Z,17.68
2022-09-13T15:46:52.504Z,17.55
2022-09-13T15:49:26.796Z,17.56
2022-09-13T15:52:02.224Z,17.55
2022-09-13T15:54:34.320Z,17.55
2022-09-13T15:57:02.203Z,17.51
2022-09-13T15:59:29.999Z,17.49
2022-09-13T16:01:57.855Z,17.47
2022-09-13T16:04:25.385Z,17.46
2022-09-13T16:06:52.933Z,17.39
2022-09-13T16:09:21.431Z,17.24
2022-09-13T16:11:50.067Z,17.24
2022-09-13T16:14:18.980Z,17.29
2022-09-13T16:16:49.267Z,17.23
2022-09-13T16:19:21.193Z,17.12
2022-09-13T16:21:49.527Z,17.12
2022-09-13T16:24:17.363Z,17.14
2022-09-13T16:26:44.693Z,17.15
2022-09-13T16:29:13.128Z,17.16
2022-09-13T16:31:41.297Z,17.09
2022-09-13T16:34:09.424Z,17.03
2022-09-13T16:36:36.971Z,17.01
2022-09-13T16:39:04.769Z,16.92
2022-09-13T16:41:32.197Z,17.01
2022-09-13T16:44:00.109Z,17.02
2022-09-13T16:46:28.609Z,17.09
2022-09-13T16:48:56.702Z,17.00
2022-09-13T16:51:24.858Z,16.96
2022-09-13T16:53:53.703Z,16.91
2022-09-13T16:56:23.998Z,16.96
2022-09-13T16:58:52.687Z,16.98
2022-09-13T17:01:24.935Z,17.02
2022-09-13T17:03:54.885Z,17.00
2022-09-13T17:06:23.591Z,16.89
2022-09-13T17:08:56.678Z,16.91
2022-09-13T17:11:26.808Z,16.87
2022-09-13T17:13:54.807Z,16.86
2022-09-13T17:16:32.834Z,16.87
2022-09-13T17:19:02.521Z,16.86
2022-09-13T17:21:30.655Z,16.85
2022-09-13T17:23:58.204Z,16.87
2022-09-13T17:26:25.839Z,16.88
2022-09-13T17:28:53.474Z,16.89
2022-09-13T17:31:21.110Z,16.86
2022-09-13T17:33:50.232Z,16.88
2022-09-13T17:36:17.663Z,16.86
2022-09-13T17:38:45.368Z,16.80
2022-09-13T17:41:15.954Z,16.87
2022-09-13T17:43:44.174Z,16.74
2022-09-13T17:46:21.581Z,16.79
2022-09-13T17:48:51.933Z,16.80
2022-09-13T17:51:21.342Z,16.79
2022-09-13T17:53:54.189Z,16.75
2022-09-13T17:56:29.917Z,16.74
2022-09-13T17:58:58.413Z,16.70
2022-09-13T18:01:26.117Z,16.65
2022-09-13T18:03:55.180Z,16.73
2022-09-13T18:06:22.997Z,16.68
2022-09-13T18:08:53.179Z,16.64
2022-09-13T18:11:22.558Z,16.58
2022-09-13T18:13:51.246Z,16.59
2022-09-13T18:16:24.709Z,16.58
2022-09-13T18:18:53.236Z,16.58
2022-09-13T18:21:22.730Z,16.53
2022-09-13T18:23:52.899Z,16.57
2022-09-13T18:26:23.091Z,16.57
2022-09-13T18:29:01.998Z,16.55
2022-09-13T18:31:31.163Z,16.58
2022-09-13T18:34:03.545Z,16.46
2022-09-13T18:36:33.311Z,16.50
2022-09-13T18:39:03.207Z,16.51
2022-09-13T18:41:36.505Z,16.46
2022-09-13T18:44:07.036Z,16.45
2022-09-13T18:46:35.526Z,16.50
2022-09-13T18:49:04.214Z,16.46
2022-09-13T18:51:40.040Z,16.52
2022-09-13T18:54:09.336Z,16.52
2022-09-13T18:56:37.078Z,16.49
2022-09-13T18:59:06.513Z,16.46
2022-09-13T19:01:39.479Z,16.52
2022-09-13T19:04:11.111Z,16.50
2022-09-13T19:06:41.661Z,16.45
2022-09-13T19:09:10.609Z,16.47
2022-09-13T19:11:48.047Z,16.45
2022-09-13T19:14:23.002Z,16.36
2022-09-13T19:16:52.258Z,16.43
2022-09-13T19:19:20.824Z,16.43
2022-09-13T19:21:49.631Z,16.43
2022-09-13T19:24:18.776Z,16.35
2022-09-13T19:26:49.422Z,16.37
2022-09-13T19:29:18.582Z,16.41
2022-09-13T19:31:48.550Z,16.46
2022-09-13T19:34:18.116Z,16.43
2022-09-13T19:36:45.830Z,16.43
2022-09-13T19:39:13.657Z,16.45
2022-09-13T19:41:41.973Z,16.39
2022-09-13T19:44:10.975Z,16.41
2022-09-13T19:46:40.549Z,16.41
2022-09-13T19:49:11.902Z,16.41
2022-09-13T19:51:40.381Z,16.41
2022-09-13T19:54:11.640Z,16.38
2022-09-13T19:56:42.476Z,16.45
2022-09-13T19:59:11.917Z,16.40
2022-09-13T20:01:42.577Z,16.39
2022-09-13T20:04:12.812Z,16.40
2022-09-13T20:06:43.270Z,16.35
2022-09-13T20:09:13.128Z,16.35
2022-09-13T20:11:42.675Z,16.36
2022-09-13T20:14:10.943Z,16.33
2022-09-13T20:16:40.084Z,16.35
2022-09-13T20:19:36.331Z,16.32
2022-09-13T20:21:58.162Z,16.30
2022-09-13T20:24:26.076Z,16.29
2022-09-13T20:26:53.547Z,16.28
2022-09-13T20:29:21.136Z,16.22
2022-09-13T20:31:48.811Z,16.22
2022-09-13T20:34:16.434Z,16.23
2022-09-13T20:36:45.741Z,16.14
2022-09-13T20:39:15.201Z,16.14
2022-09-13T20:41:43.800Z,16.20
2022-09-13T20:44:11.894Z,16.14
2022-09-13T20:46:40.658Z,16.18
2022-09-13T20:49:09.381Z,16.16
2022-09-13T20:51:37.776Z,16.13
2022-09-13T20:54:05.858Z,16.14
2022-09-13T20:56:34.760Z,16.13
2022-09-13T20:59:02.999Z,16.12
2022-09-13T21:01:31.654Z,16.15
2022-09-13T21:03:59.846Z,16.11
2022-09-13T21:06:29.885Z,16.13
2022-09-13T21:09:00.315Z,16.09
2022-09-13T21:11:33.019Z,16.10
2022-09-13T21:14:09.900Z,16.08
2022-09-13T21:16:40.999Z,16.10
2022-09-13T21:19:11.580Z,16.04
2022-09-13T21:21:41.020Z,16.08
2022-09-13T21:24:26.988Z,16.07
2022-09-13T21:26:54.476Z,15.96
2022-09-13T21:29:21.827Z,15.92
2022-09-13T21:31:49.660Z,15.92
2022-09-13T21:34:18.938Z,15.92
2022-09-13T21:36:47.098Z,15.86
2022-09-13T21:39:16.389Z,15.78
2022-09-13T21:41:44.329Z,15.77
2022-09-13T21:44:12.004Z,15.70
2022-09-13T21:46:41.147Z,15.68
2022-09-13T21:49:10.904Z,15.69
2022-09-13T21:51:46.967Z,15.59
2022-09-13T21:54:16.999Z,15.58
2022-09-13T21:56:50.097Z,15.53
2022-09-13T21:59:19.207Z,15.48
2022-09-13T22:01:54.215Z,15.39
2022-09-13T22:04:24.723Z,15.43
2022-09-13T22:06:53.947Z,15.36
2022-09-13T22:09:27.334Z,15.40
2022-09-13T22:11:56.617Z,15.40
2022-09-13T22:14:24.754Z,15.23
2022-09-13T22:16:53.131Z,15.22
2022-09-13T22:19:24.033Z,15.30
2022-09-13T22:21:55.808Z,15.27
2022-09-13T22:24:24.881Z,15.29
2022-09-13T22:26:53.253Z,15.26
2022-09-13T22:29:21.421Z,15.17
2022-09-13T22:31:50.591Z,15.16
2022-09-13T22:34:20.753Z,15.19
2022-09-13T22:36:48.065Z,15.15
2022-09-13T22:39:16.679Z,15.15
2022-09-13T22:41:45.029Z,15.15
2022-09-13T22:44:12.748Z,15.14
2022-09-13T22:46:42.910Z,15.04
2022-09-13T22:49:18.502Z,15.09
2022-09-13T22:51:47.689Z,15.07
2022-09-13T22:54:16.603Z,15.05
2022-09-13T22:56:44.616Z,15.04
2022-09-13T22:59:17.936Z,15.04
2022-09-13T23:01:45.435Z,14.98
2022-09-13T23:04:13.987Z,14.93
2022-09-13T23:06:44.097Z,14.92
2022-09-13T23:09:14.945Z,14.91
2022-09-13T23:11:42.792Z,14.87
2022-09-13T23:14:12.987Z,14.90
2022-09-13T23:16:45.621Z,14.89
2022-09-13T23:19:15.990Z,14.83
2022-09-13T23:21:43.892Z,14.82
2022-09-13T23:24:14.115Z,14.79
2022-09-13T23:26:42.774Z,14.77
2022-09-13T23:29:16.841Z,14.55
2022-09-13T23:31:46.406Z,14.67
2022-09-13T23:34:14.529Z,14.65
2022-09-13T23:36:43.325Z,14.65
2022-09-13T23:39:16.911Z,14.64
2022-09-13T23:41:45.702Z,14.63
2022-09-13T23:44:13.587Z,14.58
2022-09-13T23:46:41.095Z,14.54
2022-09-13T23:49:08.517Z,14.49
2022-09-13T23:51:36.128Z,14.46
2022-09-13T23:54:03.735Z,14.50
2022-09-13T23:56:32.249Z,14.40
2022-09-13T23:59:02.082Z,14.41
